createdAt,value
2023-03-30T00:01:35.656Z,23.59
2023-03-30T00:04:07.158Z,23.58
2023-03-30T00:06:39.728Z,23.57
2023-03-30T00:09:10.346Z,23.59
2023-03-30T00:11:43.621Z,23.57
2023-03-30T00:14:14.125Z,23.55
2023-03-30T00:16:45.189Z,23.53
2023-03-30T00:19:17.299Z,23.52
2023-03-30T00:21:47.837Z,23.52
2023-03-30T00:24:18.296Z,23.51
2023-03-30T00:26:50.294Z,23.51
2023-03-30T00:29:20.986Z,23.52
2023-03-30T00:31:51.795Z,23.50
2023-03-30T00:34:22.601Z,23.52
2023-03-30T00:36:53.848Z,23.52
2023-03-30T00:39:27.079Z,23.51
2023-03-30T00:41:59.158Z,23.52
2023-03-30T00:45:12.105Z,23.51
2023-03-30T00:47:47.713Z,23.51
2023-03-30T00:50:22.382Z,23.52
2023-03-30T00:52:57.155Z,23.52
2023-03-30T00:55:32.467Z,23.51
2023-03-30T00:58:05.405Z,23.52
2023-03-30T01:00:38.899Z,23.53
2023-03-30T01:03:17.100Z,23.53
2023-03-30T01:05:49.283Z,23.53
2023-03-30T01:08:20.666Z,23.53
2023-03-30T01:10:51.316Z,23.54
2023-03-30T01:13:24.347Z,23.55
2023-03-30T01:16:11.734Z,23.54
2023-03-30T01:18:57.020Z,23.50
2023-03-30T01:22:13.333Z,23.47
2023-03-30T01:25:38.852Z,23.41
2023-03-30T01:28:42.281Z,23.37
2023-03-30T01:31:49.656Z,23.37
2023-03-30T01:34:52.170Z,23.32
2023-03-30T01:38:11.028Z,23.31
2023-03-30T01:40:51.733Z,23.29
2023-03-30T01:43:32.167Z,23.29
2023-03-30T01:46:10.294Z,23.29
2023-03-30T01:48:50.394Z,23.30
2023-03-30T01:51:29.466Z,23.29
2023-03-30T01:54:10.074Z,23.25
2023-03-30T01:56:48.690Z,23.23
2023-03-30T01:59:29.336Z,23.24
2023-03-30T02:02:04.669Z,23.23
2023-03-30T02:04:42.333Z,23.24
2023-03-30T02:07:18.823Z,23.23
2023-03-30T02:09:53.414Z,23.23
2023-03-30T02:12:29.792Z,23.22
2023-03-30T02:15:05.306Z,23.22
2023-03-30T02:17:38.505Z,23.22
2023-03-30T02:20:12.902Z,23.22
2023-03-30T02:22:43.441Z,23.21
2023-03-30T02:25:14.797Z,23.20
2023-03-30T02:27:47.339Z,23.22
2023-03-30T02:30:18.841Z,23.23
2023-03-30T02:32:54.577Z,23.25
2023-03-30T02:35:58.254Z,23.25
2023-03-30T02:39:05.694Z,23.23
2023-03-30T02:42:38.218Z,23.22
2023-03-30T02:45:29.675Z,23.20
2023-03-30T02:48:19.142Z,23.18
2023-03-30T02:50:57.801Z,23.18
2023-03-30T02:53:37.492Z,23.19
2023-03-30T02:56:19.783Z,23.17
2023-03-30T02:58:58.906Z,23.17
2023-03-30T03:01:39.465Z,23.19
2023-03-30T03:04:15.883Z,23.21
2023-03-30T03:06:46.922Z,23.24
2023-03-30T03:09:17.527Z,23.25
2023-03-30T03:11:48.072Z,23.27
2023-03-30T03:14:17.932Z,23.27
2023-03-30T03:16:52.448Z,23.27
2023-03-30T03:19:23.451Z,23.29
2023-03-30T03:21:53.717Z,23.29
2023-03-30T03:24:24.628Z,23.30
2023-03-30T03:26:55.113Z,23.28
2023-03-30T03:29:27.804Z,23.27
2023-03-30T03:31:59.897Z,23.29
2023-03-30T03:34:31.828Z,23.30
2023-03-30T03:37:02.931Z,23.31
2023-03-30T03:39:34.112Z,23.32
2023-03-30T03:42:04.647Z,23.34
2023-03-30T03:44:38.044Z,23.33
2023-03-30T03:47:15.999Z,23.33
2023-03-30T03:49:47.052Z,23.34
2023-03-30T03:52:17.647Z,23.33
2023-03-30T03:54:48.087Z,23.32
2023-03-30T03:57:18.681Z,23.33
2023-03-30T03:59:49.200Z,23.31
2023-03-30T04:02:23.923Z,23.31
2023-03-30T04:04:54.837Z,23.30
2023-03-30T04:07:25.833Z,23.30
2023-03-30T04:09:56.069Z,23.25
2023-03-30T04:12:26.776Z,23.22
2023-03-30T04:14:57.244Z,23.22
2023-03-30T04:17:29.831Z,23.22
2023-03-30T04:20:06.924Z,23.24
2023-03-30T04:22:42.289Z,23.24
2023-03-30T04:25:15.368Z,23.24
2023-03-30T04:27:45.864Z,23.26
2023-03-30T04:30:16.897Z,23.29
2023-03-30T04:32:55.096Z,23.31
2023-03-30T04:35:25.715Z,23.34
2023-03-30T04:37:55.799Z,23.38
2023-03-30T04:40:26.772Z,23.39
2023-03-30T04:43:02.724Z,23.38
2023-03-30T04:45:34.161Z,23.38
2023-03-30T04:48:06.677Z,23.39
2023-03-30T04:50:37.107Z,23.38
2023-03-30T04:53:07.865Z,23.39
2023-03-30T04:55:37.785Z,23.41
2023-03-30T04:58:08.374Z,23.43
2023-03-30T05:00:39.071Z,23.45
2023-03-30T05:03:11.577Z,23.45
2023-03-30T05:05:42.036Z,23.45
2023-03-30T05:08:12.537Z,23.46
2023-03-30T05:10:43.067Z,23.47
2023-03-30T05:13:12.908Z,23.50
2023-03-30T05:15:43.245Z,23.52
2023-03-30T05:18:15.937Z,23.55
2023-03-30T05:20:46.044Z,23.60
2023-03-30T05:23:16.534Z,23.65
2023-03-30T05:25:49.227Z,23.68
2023-03-30T05:28:19.727Z,23.69
2023-03-30T05:30:54.544Z,23.70
2023-03-30T05:33:27.511Z,23.73
2023-03-30T05:35:58.017Z,23.77
2023-03-30T05:38:28.575Z,23.82
2023-03-30T05:40:59.096Z,23.88
2023-03-30T05:43:30.168Z,23.95
2023-03-30T05:46:00.583Z,24.03
2023-03-30T05:48:33.512Z,24.11
2023-03-30T05:51:04.292Z,24.18
2023-03-30T05:53:34.985Z,24.27
2023-03-30T05:56:05.759Z,24.34
2023-03-30T05:58:36.292Z,24.42
2023-03-30T06:01:07.459Z,24.48
2023-03-30T06:03:40.391Z,24.57
2023-03-30T06:06:12.628Z,24.65
2023-03-30T06:08:43.737Z,24.74
2023-03-30T06:11:14.470Z,24.83
2023-03-30T06:13:44.759Z,24.90
2023-03-30T06:16:15.573Z,24.95
2023-03-30T06:18:47.544Z,24.96
2023-03-30T06:21:18.203Z,24.96
2023-03-30T06:23:49.534Z,24.96
2023-03-30T06:26:20.210Z,24.96
2023-03-30T06:28:50.587Z,24.95
2023-03-30T06:31:21.214Z,24.93
2023-03-30T06:33:53.256Z,24.92
2023-03-30T06:36:44.422Z,24.89
2023-03-30T06:39:14.631Z,24.84
2023-03-30T06:41:45.081Z,24.82
2023-03-30T06:44:15.920Z,24.79
2023-03-30T06:46:46.659Z,24.75
2023-03-30T06:49:18.249Z,24.72
2023-03-30T06:51:49.063Z,24.69
2023-03-30T06:54:20.823Z,24.68
2023-03-30T06:56:53.082Z,24.68
2023-03-30T06:59:24.085Z,24.68
2023-03-30T07:01:54.318Z,24.68
2023-03-30T07:04:26.918Z,24.68
2023-03-30T07:06:58.054Z,24.66
2023-03-30T07:09:28.987Z,24.65
2023-03-30T07:11:59.547Z,24.68
2023-03-30T07:14:30.062Z,24.70
2023-03-30T07:17:00.316Z,24.73
2023-03-30T07:19:32.489Z,24.71
2023-03-30T07:22:03.046Z,24.72
2023-03-30T07:24:34.146Z,24.74
2023-03-30T07:27:04.548Z,24.78
2023-03-30T07:29:34.568Z,24.83
2023-03-30T07:32:04.850Z,24.92
2023-03-30T07:34:37.155Z,24.99
2023-03-30T07:37:08.488Z,25.05
2023-03-30T07:39:39.105Z,25.12
2023-03-30T07:42:10.392Z,25.16
2023-03-30T07:44:40.453Z,25.21
2023-03-30T07:47:11.017Z,25.26
2023-03-30T07:49:43.016Z,25.27
2023-03-30T07:52:13.650Z,25.28
2023-03-30T07:54:44.608Z,25.28
2023-03-30T07:57:15.220Z,25.30
2023-03-30T07:59:47.086Z,25.32
2023-03-30T08:02:18.544Z,25.35
2023-03-30T08:04:50.906Z,25.36
2023-03-30T08:07:20.767Z,25.37
2023-03-30T08:09:51.933Z,25.37
2023-03-30T08:12:22.384Z,25.36
2023-03-30T08:14:52.785Z,25.35
2023-03-30T08:17:33.006Z,25.35
2023-03-30T08:20:11.113Z,25.34
2023-03-30T08:22:41.962Z,25.33
2023-03-30T08:25:12.428Z,25.33
2023-03-30T08:27:42.992Z,25.33
2023-03-30T08:30:16.862Z,25.32
2023-03-30T08:32:47.805Z,25.27
2023-03-30T08:35:22.192Z,25.24
2023-03-30T08:37:54.312Z,25.20
2023-03-30T08:40:25.659Z,25.13
2023-03-30T08:43:15.236Z,25.07
2023-03-30T08:45:46.878Z,25.04
2023-03-30T08:48:23.919Z,25.01
2023-03-30T08:51:03.795Z,24.96
2023-03-30T08:53:37.240Z,24.92
2023-03-30T08:56:23.117Z,24.90
2023-03-30T08:59:07.825Z,24.86
2023-03-30T09:01:49.795Z,24.81
2023-03-30T09:04:35.789Z,24.76
2023-03-30T09:07:19.766Z,24.70
2023-03-30T09:09:53.234Z,24.63
2023-03-30T09:12:35.742Z,24.59
2023-03-30T09:15:16.261Z,24.54
2023-03-30T09:17:53.044Z,24.52
2023-03-30T09:20:28.156Z,24.49
2023-03-30T09:23:05.206Z,24.46
2023-03-30T09:25:45.465Z,24.42
2023-03-30T09:28:23.193Z,24.40
2023-03-30T09:31:01.928Z,24.41
2023-03-30T09:33:41.272Z,24.42
2023-03-30T09:36:20.415Z,24.44
2023-03-30T09:38:53.299Z,24.45
2023-03-30T09:42:05.164Z,24.45
2023-03-30T09:44:40.865Z,24.47
2023-03-30T09:47:27.067Z,24.50
2023-03-30T09:50:02.989Z,24.53
2023-03-30T09:52:37.667Z,24.54
2023-03-30T09:55:31.656Z,24.53
2023-03-30T09:58:21.655Z,24.50
2023-03-30T10:01:09.380Z,24.48
2023-03-30T10:03:40.086Z,24.47
2023-03-30T10:06:14.236Z,24.46
2023-03-30T10:08:53.701Z,24.47
2023-03-30T10:11:39.572Z,24.47
2023-03-30T10:14:34.295Z,24.44
2023-03-30T10:17:10.334Z,24.44
2023-03-30T10:19:48.647Z,24.45
2023-03-30T10:22:24.622Z,24.44
2023-03-30T10:24:57.763Z,24.46
2023-03-30T10:27:36.596Z,24.45
2023-03-30T10:30:14.705Z,24.44
2023-03-30T10:32:48.286Z,24.44
2023-03-30T10:35:27.059Z,24.43
2023-03-30T10:38:00.042Z,24.42
2023-03-30T10:40:39.052Z,24.42
2023-03-30T10:43:19.954Z,24.41
2023-03-30T10:45:54.580Z,24.40
2023-03-30T10:48:44.909Z,24.40
2023-03-30T10:51:32.764Z,24.39
2023-03-30T10:54:19.917Z,24.37
2023-03-30T10:56:54.674Z,24.35
2023-03-30T11:00:00.215Z,24.31
2023-03-30T11:02:59.308Z,24.29
2023-03-30T11:05:35.995Z,24.27
2023-03-30T11:08:10.127Z,24.26
2023-03-30T11:10:45.481Z,24.24
2023-03-30T11:13:24.366Z,24.21
2023-03-30T11:15:59.200Z,24.17
2023-03-30T11:18:37.932Z,24.14
2023-03-30T11:21:14.642Z,24.12
2023-03-30T11:23:53.971Z,24.10
2023-03-30T11:26:36.622Z,24.08
2023-03-30T11:29:27.583Z,24.05
2023-03-30T11:32:17.885Z,24.02
2023-03-30T11:35:02.636Z,23.99
2023-03-30T11:37:41.445Z,23.98
2023-03-30T11:40:23.701Z,23.98
2023-03-30T11:42:55.893Z,23.99
2023-03-30T11:46:04.084Z,23.98
2023-03-30T11:49:34.218Z,23.96
2023-03-30T11:52:27.978Z,23.97
2023-03-30T11:55:29.802Z,23.97
2023-03-30T11:58:17.131Z,23.97
2023-03-30T12:01:04.433Z,23.96
2023-03-30T12:03:45.784Z,23.97
2023-03-30T12:06:35.368Z,23.98
2023-03-30T12:09:27.104Z,23.99
2023-03-30T12:12:08.275Z,24.00
2023-03-30T12:14:57.173Z,24.02
2023-03-30T12:17:42.435Z,24.02
2023-03-30T12:20:29.979Z,24.03
2023-03-30T12:23:12.078Z,24.03
2023-03-30T12:26:11.020Z,24.03
2023-03-30T12:29:15.143Z,24.01
2023-03-30T12:32:21.629Z,23.98
2023-03-30T12:34:52.386Z,23.98
2023-03-30T12:37:27.057Z,23.98
2023-03-30T12:40:11.666Z,23.99
2023-03-30T12:42:56.159Z,23.98
2023-03-30T12:45:33.882Z,23.96
2023-03-30T12:48:33.660Z,23.95
2023-03-30T12:51:24.877Z,23.93
2023-03-30T12:54:38.187Z,23.91
2023-03-30T12:57:23.790Z,23.90
2023-03-30T13:00:24.044Z,23.91
2023-03-30T13:03:30.931Z,23.90
2023-03-30T13:06:05.435Z,23.89
2023-03-30T13:08:52.934Z,23.90
2023-03-30T13:11:26.633Z,23.88
2023-03-30T13:14:03.410Z,23.88
2023-03-30T13:17:17.974Z,23.87
2023-03-30T13:20:25.956Z,23.88
2023-03-30T13:23:33.458Z,23.86
2023-03-30T13:26:33.849Z,23.89
2023-03-30T13:29:14.666Z,23.88
2023-03-30T13:32:18.931Z,23.89
2023-03-30T13:35:41.337Z,23.88
2023-03-30T13:38:40.566Z,23.88
2023-03-30T13:41:44.797Z,23.88
2023-03-30T13:44:42.038Z,23.88
2023-03-30T13:47:37.263Z,23.88
2023-03-30T13:50:22.540Z,23.88
2023-03-30T13:52:56.779Z,23.87
2023-03-30T13:55:33.712Z,23.88
2023-03-30T13:58:08.344Z,23.90
2023-03-30T14:00:49.389Z,23.90
2023-03-30T14:03:40.729Z,23.90
2023-03-30T14:06:19.581Z,23.90
2023-03-30T14:08:53.050Z,23.89
2023-03-30T14:11:28.443Z,23.90
2023-03-30T14:13:59.847Z,23.89
2023-03-30T14:16:39.989Z,23.90
2023-03-30T14:19:25.357Z,23.88
2023-03-30T14:22:02.000Z,23.86
2023-03-30T14:24:35.144Z,23.85
2023-03-30T14:27:09.982Z,23.84
2023-03-30T14:29:48.836Z,23.84
2023-03-30T14:32:23.842Z,23.82
2023-03-30T14:34:58.470Z,23.84
2023-03-30T14:37:33.404Z,23.82
2023-03-30T14:40:06.960Z,23.81
2023-03-30T14:42:39.913Z,23.79
2023-03-30T14:45:12.911Z,23.78
2023-03-30T14:47:44.246Z,23.73
2023-03-30T14:50:21.971Z,23.71
2023-03-30T14:52:54.732Z,23.70
2023-03-30T14:55:30.223Z,23.68
2023-03-30T14:58:02.469Z,23.65
2023-03-30T15:00:36.208Z,23.64
2023-03-30T15:03:16.805Z,23.63
2023-03-30T15:05:55.024Z,23.62
2023-03-30T15:08:29.425Z,23.60
2023-03-30T15:11:03.448Z,23.59
2023-03-30T15:13:42.704Z,23.61
2023-03-30T15:16:21.501Z,23.60
2023-03-30T15:18:55.114Z,23.59
2023-03-30T15:21:27.671Z,23.56
2023-03-30T15:23:59.615Z,23.54
2023-03-30T15:26:31.420Z,23.53
2023-03-30T15:29:05.045Z,23.51
2023-03-30T15:31:35.582Z,23.49
2023-03-30T15:34:08.971Z,23.46
2023-03-30T15:36:42.789Z,23.45
2023-03-30T15:39:24.764Z,23.43
2023-03-30T15:42:05.856Z,23.41
2023-03-30T15:44:38.645Z,23.37
2023-03-30T15:47:17.852Z,23.33
2023-03-30T15:49:53.252Z,23.28
2023-03-30T15:52:34.518Z,23.27
2023-03-30T15:55:16.684Z,23.25
2023-03-30T15:57:53.466Z,23.22
2023-03-30T16:00:29.272Z,23.22
2023-03-30T16:03:03.024Z,23.19
2023-03-30T16:05:36.449Z,23.18
2023-03-30T16:08:08.811Z,23.16
2023-03-30T16:10:41.141Z,23.12
2023-03-30T16:13:15.144Z,23.12
2023-03-30T16:15:45.680Z,23.10
2023-03-30T16:18:17.098Z,23.08
2023-03-30T16:20:47.699Z,23.07
2023-03-30T16:23:20.489Z,23.05
2023-03-30T16:25:51.780Z,23.02
2023-03-30T16:28:25.197Z,22.99
2023-03-30T16:31:03.119Z,22.98
2023-03-30T16:33:34.267Z,22.95
2023-03-30T16:36:09.124Z,22.95
2023-03-30T16:38:43.910Z,22.94
2023-03-30T16:41:19.271Z,22.93
2023-03-30T16:43:50.381Z,22.91
2023-03-30T16:46:23.045Z,22.90
2023-03-30T16:48:53.135Z,22.89
2023-03-30T16:51:25.614Z,22.89
2023-03-30T16:53:58.201Z,22.88
2023-03-30T16:56:29.410Z,22.85
2023-03-30T16:59:00.418Z,22.84
2023-03-30T17:01:32.678Z,22.83
2023-03-30T17:04:03.777Z,22.81
2023-03-30T17:06:33.679Z,22.81
2023-03-30T17:09:09.608Z,22.81
2023-03-30T17:11:40.446Z,22.79
2023-03-30T17:14:10.916Z,22.78
2023-03-30T17:16:47.514Z,22.76
2023-03-30T17:19:19.944Z,22.73
2023-03-30T17:21:50.650Z,22.72
2023-03-30T17:24:23.165Z,22.71
2023-03-30T17:26:53.736Z,22.69
2023-03-30T17:29:24.084Z,22.68
2023-03-30T17:31:54.747Z,22.67
2023-03-30T17:34:25.521Z,22.67
2023-03-30T17:36:56.664Z,22.67
2023-03-30T17:39:29.858Z,22.67
2023-03-30T17:42:00.920Z,22.68
2023-03-30T17:44:33.697Z,22.66
2023-03-30T17:47:04.411Z,22.65
2023-03-30T17:49:37.010Z,22.63
2023-03-30T17:52:07.720Z,22.61
2023-03-30T17:54:41.809Z,22.61
2023-03-30T17:57:13.867Z,22.59
2023-03-30T17:59:44.533Z,22.58
2023-03-30T18:02:15.108Z,22.58
2023-03-30T18:04:45.962Z,22.57
2023-03-30T18:07:17.614Z,22.56
2023-03-30T18:09:50.373Z,22.57
2023-03-30T18:12:20.200Z,22.57
2023-03-30T18:14:50.690Z,22.55
2023-03-30T18:17:21.505Z,22.56
2023-03-30T18:19:52.694Z,22.56
2023-03-30T18:22:23.118Z,22.56
2023-03-30T18:24:56.036Z,22.57
2023-03-30T18:27:27.283Z,22.55
2023-03-30T18:29:58.526Z,22.53
2023-03-30T18:32:40.498Z,22.51
2023-03-30T18:35:17.286Z,22.49
2023-03-30T18:37:48.625Z,22.48
2023-03-30T18:40:25.915Z,22.48
2023-03-30T18:42:56.852Z,22.47
2023-03-30T18:45:41.249Z,22.47
2023-03-30T18:48:17.222Z,22.47
2023-03-30T18:50:49.741Z,22.47
2023-03-30T18:53:22.630Z,22.47
2023-03-30T18:55:59.001Z,22.47
2023-03-30T18:58:30.972Z,22.46
2023-03-30T19:01:02.053Z,22.45
2023-03-30T19:03:33.687Z,22.44
2023-03-30T19:06:04.314Z,22.42
2023-03-30T19:08:35.374Z,22.42
2023-03-30T19:11:08.174Z,22.41
2023-03-30T19:13:38.425Z,22.40
2023-03-30T19:16:09.515Z,22.39
2023-03-30T19:18:40.431Z,22.39
2023-03-30T19:21:16.663Z,22.38
2023-03-30T19:23:47.294Z,22.39
2023-03-30T19:26:19.902Z,22.40
2023-03-30T19:28:50.340Z,22.40
2023-03-30T19:31:20.249Z,22.39
2023-03-30T19:33:50.786Z,22.39
2023-03-30T19:36:25.218Z,22.37
2023-03-30T19:38:55.415Z,22.36
2023-03-30T19:41:38.716Z,22.38
2023-03-30T19:44:13.304Z,22.37
2023-03-30T19:46:48.343Z,22.37
2023-03-30T19:49:19.870Z,22.37
2023-03-30T19:51:54.503Z,22.37
2023-03-30T19:54:25.934Z,22.36
2023-03-30T19:56:58.790Z,22.37
2023-03-30T19:59:29.715Z,22.37
2023-03-30T20:02:00.427Z,22.35
2023-03-30T20:04:30.585Z,22.37
2023-03-30T20:07:01.958Z,22.35
2023-03-30T20:09:32.060Z,22.35
2023-03-30T20:12:05.023Z,22.35
2023-03-30T20:14:36.089Z,22.36
2023-03-30T20:17:10.997Z,22.37
2023-03-30T20:19:43.056Z,22.37
2023-03-30T20:22:13.684Z,22.37
2023-03-30T20:24:45.199Z,22.37
2023-03-30T20:27:18.444Z,22.37
2023-03-30T20:29:48.612Z,22.35
2023-03-30T20:32:21.983Z,22.34
2023-03-30T20:34:52.109Z,22.33
2023-03-30T20:37:22.436Z,22.33
2023-03-30T20:39:52.587Z,22.32
2023-03-30T20:42:27.194Z,22.32
2023-03-30T20:44:58.284Z,22.31
2023-03-30T20:47:31.057Z,22.29
2023-03-30T20:50:02.254Z,22.27
2023-03-30T20:52:32.474Z,22.28
2023-03-30T20:55:02.738Z,22.28
2023-03-30T20:57:40.198Z,22.31
2023-03-30T21:00:13.163Z,22.30
2023-03-30T21:02:43.670Z,22.29
2023-03-30T21:05:14.031Z,22.29
2023-03-30T21:07:48.265Z,22.27
2023-03-30T21:10:21.606Z,22.25
2023-03-30T21:12:56.619Z,22.24
2023-03-30T21:15:27.581Z,22.21
2023-03-30T21:17:57.751Z,22.20
2023-03-30T21:20:28.178Z,22.20
2023-03-30T21:22:58.878Z,22.20
2023-03-30T21:25:30.532Z,22.21
2023-03-30T21:28:03.278Z,22.22
2023-03-30T21:30:33.870Z,22.21
2023-03-30T21:33:03.980Z,22.22
2023-03-30T21:35:34.727Z,22.22
2023-03-30T21:38:06.375Z,22.20
2023-03-30T21:40:36.986Z,22.22
2023-03-30T21:43:09.793Z,22.23
2023-03-30T21:45:41.066Z,22.24
2023-03-30T21:48:15.075Z,22.24
2023-03-30T21:50:45.686Z,22.24
2023-03-30T21:53:16.962Z,22.25
2023-03-30T21:55:48.944Z,22.24
2023-03-30T21:58:21.574Z,22.25
2023-03-30T22:01:04.502Z,22.25
2023-03-30T22:03:42.160Z,22.24
2023-03-30T22:06:16.453Z,22.24
2023-03-30T22:08:48.223Z,22.24
2023-03-30T22:11:22.598Z,22.24
2023-03-30T22:13:55.801Z,22.23
2023-03-30T22:16:28.683Z,22.22
2023-03-30T22:18:59.746Z,22.20
2023-03-30T22:21:34.767Z,22.19
2023-03-30T22:24:08.033Z,22.16
2023-03-30T22:26:38.458Z,22.15
2023-03-30T22:29:10.878Z,22.16
2023-03-30T22:31:43.065Z,22.14
2023-03-30T22:34:13.994Z,22.14
2023-03-30T22:36:44.878Z,22.13
2023-03-30T22:39:17.176Z,22.11
2023-03-30T22:41:47.567Z,22.10
2023-03-30T22:44:20.361Z,22.09
2023-03-30T22:46:50.866Z,22.07
2023-03-30T22:49:21.558Z,22.07
2023-03-30T22:51:54.504Z,22.06
2023-03-30T22:54:26.200Z,22.06
2023-03-30T22:56:57.120Z,22.06
2023-03-30T22:59:30.329Z,22.06
2023-03-30T23:02:00.572Z,22.06
2023-03-30T23:04:32.006Z,22.04
2023-03-30T23:07:04.503Z,22.05
2023-03-30T23:09:35.305Z,22.05
2023-03-30T23:12:06.854Z,22.05
2023-03-30T23:14:40.247Z,22.04
2023-03-30T23:17:10.564Z,22.03
2023-03-30T23:19:48.910Z,22.02
2023-03-30T23:22:19.608Z,22.01
2023-03-30T23:24:49.702Z,22.01
2023-03-30T23:27:20.461Z,22.02
2023-03-30T23:29:53.473Z,22.02
2023-03-30T23:32:23.573Z,22.02
2023-03-30T23:34:53.360Z,22.03
2023-03-30T23:37:23.851Z,22.05
2023-03-30T23:39:54.301Z,22.04
2023-03-30T23:42:24.676Z,22.04
2023-03-30T23:44:57.149Z,22.03
2023-03-30T23:47:27.865Z,22.00
2023-03-30T23:49:58.366Z,22.00
2023-03-30T23:52:28.570Z,22.01
2023-03-30T23:55:02.205Z,21.98
2023-03-30T23:57:32.854Z,21.98
